Time;durP1;ratioP1;P1;durP2;ratioP2;P2;SDS_P1;SDS_P2;PMS_P1;PMS_P2;Temp;Humidity;BMP_temperature;BMP_pressure;BME280_temperature;BME280_humidity;BME280_pressure;Samples;Min_cycle;Max_cycle;Signal;HPM_P1;HPM_P2
2022/08/15 00:09:00;;;;;;;9.00;4.47;;;22.70;94.50;;;;;;6278088;22;20020;-96
2022/08/15 00:11:36;;;;;;;9.10;4.68;;;22.70;94.70;;;;;;6251758;22;20024;-93
2022/08/15 00:14:17;;;;;;;7.22;3.95;;;22.70;94.80;;;;;;6250846;22;20095;-95
2022/08/15 00:16:44;;;;;;;6.55;3.78;;;22.70;94.80;;;;;;6250734;22;20019;-94
2022/08/15 00:19:47;;;;;;;8.07;4.60;;;22.70;94.80;;;;;;6251303;22;20046;-96
2022/08/15 00:22:17;;;;;;;8.43;5.00;;;22.70;94.70;;;;;;6251059;22;20043;-95
2022/08/15 00:24:45;;;;;;;7.68;4.60;;;22.60;94.80;;;;;;6251361;22;20015;-96
2022/08/15 00:27:11;;;;;;;7.97;4.53;;;22.60;94.80;;;;;;6251828;22;20071;-96
2022/08/15 00:29:38;;;;;;;;;;;22.50;94.70;;;;;;6251789;22;20019;-95
2022/08/15 00:34:39;;;;;;;8.13;4.50;;;22.40;95.00;;;;;;6278401;22;20027;-96
2022/08/15 00:37:05;;;;;;;;;;;22.40;95.00;;;;;;6252234;22;20019;-96
2022/08/15 00:44:45;;;;;;;8.38;4.82;;;22.30;95.00;;;;;;6286568;22;20357;-96
2022/08/15 00:47:16;;;;;;;8.05;4.63;;;22.20;95.00;;;;;;6260825;22;20023;-96
2022/08/15 00:49:45;;;;;;;8.32;5.20;;;22.10;95.20;;;;;;6272863;22;20042;-94
2022/08/15 00:52:42;;;;;;;6.93;4.72;;;22.10;95.10;;;;;;6305278;22;20019;-91
2022/08/15 05:40:09;;;;;;;12.13;7.25;;;21.20;99.90;;;;;;6306856;22;20023;-89
2022/08/15 08:44:55;;;;;;;6.60;3.97;;;25.50;96.70;;;;;;6282406;22;20099;-89
2022/08/15 08:47:39;;;;;;;8.15;5.32;;;25.60;96.20;;;;;;6159081;23;20021;-93
2022/08/15 08:52:48;;;;;;;5.88;3.72;;;25.60;96.30;;;;;;6310098;22;20024;-91
2022/08/15 08:55:30;;;;;;;7.25;4.22;;;25.60;96.10;;;;;;6262758;22;20046;-90
2022/08/15 09:05:49;;;;;;;7.47;4.25;;;25.50;95.70;;;;;;6296776;22;20030;-93
2022/08/15 09:09:23;;;;;;;7.57;4.18;;;25.50;95.60;;;;;;6256019;22;20024;-94
2022/08/15 09:15:07;;;;;;;6.57;3.47;;;25.60;95.40;;;;;;6146752;22;20027;-96
2022/08/15 09:18:06;;;;;;;5.75;3.38;;;25.70;95.40;;;;;;6255355;22;20024;-92
2022/08/15 09:38:53;;;;;;;6.00;2.75;;;26.50;93.70;;;;;;6222799;23;20058;-90
2022/08/15 09:42:19;;;;;;;4.47;2.42;;;26.70;93.20;;;;;;6201734;23;20349;-93
2022/08/15 09:45:15;;;;;;;4.57;2.40;;;26.80;92.90;;;;;;6202953;23;20016;-90
2022/08/15 09:48:03;;;;;;;4.93;2.67;;;26.90;92.70;;;;;;6204079;23;20067;-94
2022/08/15 09:50:48;;;;;;;4.97;2.40;;;27.00;92.50;;;;;;6224073;23;20016;-96
2022/08/15 09:55:51;;;;;;;4.68;2.47;;;27.20;92.10;;;;;;6309650;22;20361;-94
2022/08/15 09:58:34;;;;;;;4.78;2.45;;;27.30;91.90;;;;;;6284077;22;20019;-90
2022/08/15 10:01:14;;;;;;;5.20;2.90;;;27.50;91.60;;;;;;6258757;22;20056;-94
2022/08/15 10:03:46;;;;;;;4.70;2.50;;;27.50;91.50;;;;;;6282721;22;20050;-95
2022/08/15 10:06:24;;;;;;;4.45;2.65;;;27.60;91.20;;;;;;6284297;22;20023;-90
2022/08/15 10:08:53;;;;;;;4.72;2.45;;;27.60;91.10;;;;;;6282832;22;20022;-93
2022/08/15 10:11:40;;;;;;;4.55;2.63;;;27.50;91.00;;;;;;6257844;22;20011;-94
2022/08/15 10:14:06;;;;;;;;;;;27.50;90.80;;;;;;6282721;22;20022;-92
2022/08/15 10:16:41;;;;;;;4.70;2.42;;;27.50;90.60;;;;;;6282752;22;19994;-93
2022/08/15 10:19:09;;;;;;;5.35;2.90;;;27.50;90.80;;;;;;6257293;22;20022;-93
2022/08/15 10:21:41;;;;;;;5.60;2.90;;;27.50;90.80;;;;;;6282313;22;20015;-94
2022/08/15 10:24:21;;;;;;;5.30;3.00;;;27.60;90.80;;;;;;6256466;22;20522;-94
2022/08/15 10:27:07;;;;;;;5.57;3.05;;;27.60;90.80;;;;;;6282943;22;20011;-92
2022/08/15 10:29:41;;;;;;;5.13;3.05;;;27.60;90.40;;;;;;6282109;22;20011;-96
2022/08/15 10:32:35;;;;;;;5.50;2.80;;;27.50;90.50;;;;;;6256158;22;20011;-94
2022/08/15 10:35:27;;;;;;;5.55;2.95;;;27.50;90.20;;;;;;6281798;22;20015;-95
2022/08/15 10:38:03;;;;;;;5.60;3.15;;;27.50;90.30;;;;;;6256270;22;20050;-91
2022/08/15 10:40:44;;;;;;;5.80;3.60;;;27.50;90.40;;;;;;6256290;22;20044;-93
2022/08/15 10:43:12;;;;;;;5.68;3.20;;;27.50;90.40;;;;;;6256429;22;20269;-94
2022/08/15 10:46:17;;;;;;;7.13;3.53;;;27.50;90.40;;;;;;6282008;22;20023;-95
2022/08/15 10:49:35;;;;;;;5.70;3.25;;;27.40;90.20;;;;;;6256439;22;20026;-94
2022/08/15 10:52:22;;;;;;;4.70;2.70;;;27.50;90.10;;;;;;6256429;22;20023;-92
2022/08/15 10:55:20;;;;;;;5.40;3.20;;;27.50;90.20;;;;;;6281758;22;20340;-87
2022/08/15 10:57:51;;;;;;;10.38;4.00;;;27.50;90.30;;;;;;6248840;22;20042;-94
2022/08/15 11:00:44;;;;;;;5.13;2.72;;;27.50;90.20;;;;;;6256302;22;20015;-93
2022/08/15 11:03:38;;;;;;;5.18;3.13;;;27.50;89.90;;;;;;6255907;22;20094;-94
2022/08/15 11:06:08;;;;;;;5.80;3.08;;;27.50;89.90;;;;;;6281380;22;20016;-93
2022/08/15 11:08:42;;;;;;;6.68;3.42;;;27.50;89.60;;;;;;6281575;22;20019;-93
2022/08/15 11:11:11;;;;;;;5.90;3.25;;;27.60;89.50;;;;;;6282957;22;20017;-89
2022/08/15 11:13:39;;;;;;;5.25;3.42;;;27.60;89.00;;;;;;6256124;22;20015;-92
2022/08/15 11:16:16;;;;;;;6.07;3.42;;;27.70;88.20;;;;;;6256347;22;20451;-92
2022/08/15 11:18:58;;;;;;;6.55;3.47;;;27.70;88.70;;;;;;6257665;22;20019;-92
2022/08/15 11:21:43;;;;;;;6.97;3.70;;;27.90;87.20;;;;;;6256213;22;20124;-94
2022/08/15 11:24:10;;;;;;;6.18;3.60;;;27.90;84.80;;;;;;6257265;22;20019;-89
2022/08/15 11:26:42;;;;;;;5.95;3.83;;;28.00;86.20;;;;;;6255729;22;20015;-92
2022/08/15 11:29:17;;;;;;;7.13;3.95;;;28.10;85.40;;;;;;6254843;22;20030;-91
2022/08/15 11:32:01;;;;;;;7.90;4.00;;;28.10;85.60;;;;;;6280065;22;20015;-95
2022/08/15 11:34:36;;;;;;;6.35;3.13;;;28.00;84.70;;;;;;6254585;22;20019;-95
2022/08/15 11:37:10;;;;;;;6.67;4.23;;;28.00;84.90;;;;;;6279866;22;20086;-88
2022/08/15 11:39:42;;;;;;;6.80;4.10;;;27.90;84.50;;;;;;6280435;22;20249;-94
2022/08/15 11:42:17;;;;;;;7.55;4.28;;;27.80;83.50;;;;;;6258625;22;20102;-94
2022/08/15 11:44:52;;;;;;;8.95;5.18;;;27.70;85.00;;;;;;6255525;22;20397;-93
2022/08/15 11:47:19;;;;;;;8.13;4.78;;;27.60;85.60;;;;;;6283152;22;20136;-92
2022/08/15 11:49:53;;;;;;;9.43;5.63;;;27.50;86.00;;;;;;6259875;22;20019;-96
2022/08/15 11:52:26;;;;;;;8.68;5.57;;;27.40;86.40;;;;;;6286346;22;20022;-94
2022/08/15 11:55:20;;;;;;;7.93;4.68;;;27.30;86.60;;;;;;6285495;22;20015;-93
2022/08/15 11:57:54;;;;;;;8.80;5.68;;;27.20;86.20;;;;;;6258274;22;20015;-96
2022/08/15 12:00:36;;;;;;;8.35;5.28;;;27.20;86.70;;;;;;6311154;22;20445;-87
2022/08/15 12:03:25;;;;;;;9.23;4.80;;;27.20;86.60;;;;;;6281591;22;20019;-89
2022/08/15 12:05:55;;;;;;;10.48;5.15;;;27.10;86.70;;;;;;6234746;22;20072;-96
2022/08/15 12:08:28;;;;;;;7.57;4.80;;;27.10;86.90;;;;;;6308997;22;20015;-94
2022/08/15 12:11:12;;;;;;;7.47;4.72;;;27.00;86.90;;;;;;6256093;22;20098;-95
2022/08/15 12:13:56;;;;;;;9.98;4.50;;;26.90;86.90;;;;;;6255973;22;20444;-93
2022/08/15 12:16:29;;;;;;;17.05;7.40;;;26.90;87.40;;;;;;6281633;22;20065;-96
2022/08/15 12:18:54;;;;;;;34.08;13.38;;;26.80;87.60;;;;;;6308109;22;20468;-91
2022/08/15 12:21:21;;;;;;;15.05;7.40;;;26.80;87.80;;;;;;6283194;22;20026;-94
2022/08/15 12:23:56;;;;;;;8.50;4.80;;;26.80;88.10;;;;;;6281891;22;20044;-94
2022/08/15 12:26:25;;;;;;;6.95;4.32;;;26.80;88.00;;;;;;6256378;22;20019;-95
2022/08/15 12:28:54;;;;;;;8.07;4.40;;;26.80;88.10;;;;;;6256696;22;20019;-96
2022/08/15 12:31:20;;;;;;;7.47;4.50;;;26.80;88.20;;;;;;6281388;22;20474;-95
2022/08/15 12:33:47;;;;;;;6.30;4.07;;;26.70;88.00;;;;;;6255567;22;20019;-96
2022/08/15 12:36:13;;;;;;;7.97;4.05;;;26.70;88.40;;;;;;6255299;22;20015;-96
2022/08/15 12:38:39;;;;;;;6.72;3.75;;;26.70;88.60;;;;;;6280656;22;20026;-95
2022/08/15 12:41:09;;;;;;;6.68;4.18;;;26.70;88.90;;;;;;6280510;22;20344;-96
2022/08/15 12:43:36;;;;;;;8.20;4.78;;;26.70;89.20;;;;;;6282307;22;20027;-93
2022/08/15 12:46:03;;;;;;;7.15;4.28;;;26.70;89.50;;;;;;6282165;22;20023;-96
2022/08/15 12:48:30;;;;;;;7.38;3.83;;;26.70;89.30;;;;;;6255810;22;20019;-96
2022/08/15 12:50:57;;;;;;;6.53;3.78;;;26.70;89.50;;;;;;6255526;22;20445;-96
2022/08/15 12:53:23;;;;;;;6.28;3.78;;;26.70;89.40;;;;;;6255396;22;20015;-95
2022/08/15 12:55:50;;;;;;;6.32;3.67;;;26.60;89.30;;;;;;6280649;22;20016;-93
2022/08/15 12:58:18;;;;;;;6.25;3.97;;;26.60;89.40;;;;;;6280800;22;20457;-91
2022/08/15 13:00:52;;;;;;;7.50;4.32;;;26.60;89.60;;;;;;6280836;22;20008;-95
2022/08/15 13:03:23;;;;;;;5.95;3.92;;;26.60;89.90;;;;;;6282007;22;20026;-92
2022/08/15 13:05:59;;;;;;;6.13;3.55;;;26.60;89.50;;;;;;6284278;22;20015;-92
2022/08/15 13:08:24;;;;;;;6.32;3.75;;;26.60;89.40;;;;;;6255459;22;20475;-95
2022/08/15 13:10:50;;;;;;;5.07;3.35;;;26.60;89.20;;;;;;6255167;22;20020;-91
2022/08/15 13:13:16;;;;;;;5.82;3.83;;;26.60;89.40;;;;;;6258618;22;20026;-96
2022/08/15 13:15:43;;;;;;;6.30;3.63;;;26.60;90.10;;;;;;6257614;22;20022;-90
2022/08/15 13:18:15;;;;;;;6.40;3.53;;;26.60;89.90;;;;;;6282322;22;20150;-89
2022/08/15 13:23:43;;;;;;;5.85;3.20;;;26.50;90.00;;;;;;6281397;22;20016;-92
2022/08/15 13:26:12;;;;;;;5.63;3.30;;;26.50;90.00;;;;;;6282945;22;20461;-93
2022/08/15 13:28:46;;;;;;;6.40;3.60;;;26.50;90.00;;;;;;6255623;22;20441;-89
2022/08/15 13:31:15;;;;;;;6.63;3.72;;;26.50;90.10;;;;;;6257423;22;20046;-94
2022/08/15 13:33:42;;;;;;;6.35;3.13;;;26.50;90.10;;;;;;6255719;22;20037;-90
2022/08/15 13:36:12;;;;;;;6.43;3.22;;;26.50;90.20;;;;;;6255623;22;20011;-90
2022/08/15 13:38:41;;;;;;;6.03;3.58;;;26.60;90.20;;;;;;6258653;22;20019;-92
2022/08/15 13:41:11;;;;;;;6.00;3.55;;;26.60;90.20;;;;;;6257578;22;20103;-87
2022/08/15 13:43:41;;;;;;;6.38;3.65;;;26.50;90.10;;;;;;6253102;22;20023;-93
2022/08/15 13:46:10;;;;;;;6.15;3.60;;;26.50;90.20;;;;;;6278822;22;20126;-94
2022/08/15 13:48:41;;;;;;;5.57;3.67;;;26.50;90.40;;;;;;6279702;22;20020;-93
2022/08/15 13:51:32;;;;;;;6.32;3.65;;;26.50;90.50;;;;;;6256074;22;20068;-93
2022/08/15 13:53:58;;;;;;;5.95;3.55;;;26.50;90.80;;;;;;6282580;22;20018;-89
2022/08/15 13:56:26;;;;;;;5.03;3.40;;;26.50;90.70;;;;;;6282266;22;20460;-90
2022/08/15 13:58:52;;;;;;;7.00;3.90;;;26.50;90.80;;;;;;6257528;22;20015;-91
2022/08/15 14:01:21;;;;;;;5.22;2.85;;;26.60;90.60;;;;;;6282487;22;20019;-93
2022/08/15 14:03:51;;;;;;;4.63;2.40;;;26.70;90.30;;;;;;6257952;22;20022;-93
2022/08/15 14:06:20;;;;;;;5.45;2.95;;;26.80;90.10;;;;;;6282704;22;20019;-93
2022/08/15 14:08:47;;;;;;;4.85;2.80;;;27.00;89.60;;;;;;6282733;22;20011;-87
2022/08/15 14:11:13;;;;;;;4.50;2.60;;;27.20;88.50;;;;;;6256223;22;20026;-86
2022/08/15 14:16:23;;;;;;;4.50;2.50;;;27.40;87.50;;;;;;6322871;22;20045;-86
2022/08/15 14:18:56;;;;;;;6.13;2.92;;;27.40;87.10;;;;;;6294276;22;20025;-88
2022/08/15 14:21:29;;;;;;;4.47;2.85;;;27.40;86.30;;;;;;6286083;22;20106;-95
2022/08/15 14:23:57;;;;;;;4.65;2.60;;;27.40;85.50;;;;;;6256983;22;20172;-88
2022/08/15 14:26:25;;;;;;;5.13;3.20;;;27.40;85.50;;;;;;6258111;22;20015;-91
2022/08/15 14:28:53;;;;;;;5.65;3.03;;;27.30;85.60;;;;;;6282854;22;20015;-88
2022/08/15 14:31:19;;;;;;;5.45;3.33;;;27.40;86.20;;;;;;6256834;22;20053;-94
2022/08/15 14:33:44;;;;;;;6.00;3.53;;;27.40;86.70;;;;;;6283032;22;20047;-93
2022/08/15 14:36:48;;;;;;;5.65;3.50;;;27.30;87.00;;;;;;6257957;22;20027;-93
2022/08/15 14:39:16;;;;;;;6.97;4.35;;;27.30;87.50;;;;;;6257807;22;20019;-94
2022/08/15 14:41:44;;;;;;;8.20;4.72;;;27.30;88.00;;;;;;6257182;22;20094;-94
2022/08/15 14:44:16;;;;;;;8.13;4.78;;;27.30;88.50;;;;;;6259674;22;20349;-90
2022/08/15 14:46:45;;;;;;;8.48;4.88;;;27.30;89.00;;;;;;6234189;22;20023;-93
2022/08/15 14:49:11;;;;;;;9.02;5.07;;;27.30;89.20;;;;;;6258684;22;20022;-91
2022/08/15 14:59:25;;;;;;;7.75;5.18;;;27.10;90.50;;;;;;6283508;22;20019;-87
2022/08/15 15:01:51;;;;;;;8.52;5.65;;;27.00;90.60;;;;;;6256777;22;20050;-85
2022/08/15 15:04:18;;;;;;;7.95;5.40;;;27.00;90.40;;;;;;6284298;22;20019;-95
2022/08/15 15:07:04;;;;;;;7.90;5.13;;;27.00;90.40;;;;;;6287653;22;20107;-92
2022/08/15 15:09:30;;;;;;;7.63;4.90;;;27.00;90.20;;;;;;6258377;22;20102;-91
2022/08/15 15:11:55;;;;;;;8.15;5.40;;;27.00;90.30;;;;;;6284824;22;20372;-87
2022/08/15 15:14:22;;;;;;;8.35;5.35;;;27.00;90.30;;;;;;6310954;22;20098;-91
2022/08/15 15:16:48;;;;;;;9.27;5.20;;;27.00;90.10;;;;;;6258829;22;20015;-93
2022/08/15 15:19:18;;;;;;;7.25;4.60;;;27.10;90.00;;;;;;6284642;22;20023;-91
2022/08/15 15:21:43;;;;;;;9.27;5.60;;;27.10;89.80;;;;;;6281783;22;20019;-90
2022/08/15 15:24:09;;;;;;;7.45;5.10;;;27.20;89.90;;;;;;6281889;22;20132;-95
2022/08/15 15:26:42;;;;;;;7.40;4.93;;;27.20;89.80;;;;;;6281780;22;20090;-91
2022/08/15 15:29:10;;;;;;;6.80;4.75;;;27.20;89.60;;;;;;6256733;22;20019;-88
2022/08/15 15:31:36;;;;;;;7.60;4.75;;;27.10;89.00;;;;;;6255690;22;20092;-89
2022/08/15 15:34:02;;;;;;;7.57;4.68;;;27.00;89.00;;;;;;6256293;22;20011;-89
2022/08/15 15:36:38;;;;;;;7.25;4.40;;;27.00;89.10;;;;;;6255776;22;20019;-95
2022/08/15 15:39:08;;;;;;;6.22;3.70;;;26.90;88.80;;;;;;6255660;22;20019;-92
2022/08/15 15:41:37;;;;;;;4.95;2.83;;;26.80;89.00;;;;;;6255827;22;20043;-89
2022/08/15 15:44:04;;;;;;;5.47;2.83;;;26.80;89.10;;;;;;6255641;22;20027;-89
2022/08/15 15:46:29;;;;;;;7.05;2.83;;;26.80;88.80;;;;;;6256185;22;20036;-92
2022/08/15 15:48:55;;;;;;;4.70;2.83;;;26.70;88.80;;;;;;6256233;22;20463;-94
2022/08/15 15:51:22;;;;;;;7.40;3.10;;;26.70;88.10;;;;;;6256272;22;20141;-89
2022/08/15 15:53:52;;;;;;;5.53;3.50;;;26.70;88.20;;;;;;6255846;22;20471;-94
2022/08/15 15:56:18;;;;;;;5.40;2.80;;;26.70;87.80;;;;;;6255757;22;20033;-89
2022/08/15 15:58:43;;;;;;;5.00;2.30;;;26.60;87.80;;;;;;6256329;22;20082;-89
2022/08/15 16:01:13;;;;;;;5.07;2.35;;;26.60;87.70;;;;;;6257578;22;20026;-91
2022/08/15 16:03:44;;;;;;;4.45;2.50;;;26.60;87.70;;;;;;6257423;22;20352;-93
2022/08/15 16:06:12;;;;;;;3.90;2.20;;;26.50;87.00;;;;;;6258259;22;20015;-93
2022/08/15 16:08:39;;;;;;;4.30;2.20;;;26.50;86.70;;;;;;6255517;22;20015;-89
2022/08/15 16:11:54;;;;;;;3.40;1.90;;;26.40;86.40;;;;;;6256236;22;20019;-89
2022/08/15 16:14:27;;;;;;;3.88;2.00;;;26.40;85.20;;;;;;6275298;22;20024;-91
2022/08/15 16:16:55;;;;;;;4.75;2.13;;;26.40;85.80;;;;;;6255267;22;20023;-90
2022/08/15 16:19:31;;;;;;;3.80;2.10;;;26.40;85.80;;;;;;6255818;22;20012;-94
2022/08/15 16:22:27;;;;;;;4.60;2.60;;;26.40;85.50;;;;;;6281509;22;20023;-93
2022/08/15 16:25:10;;;;;;;4.05;2.40;;;26.30;84.80;;;;;;6257209;22;20019;-89
2022/08/15 16:27:42;;;;;;;3.97;2.25;;;26.30;85.30;;;;;;6281104;22;20019;-89
2022/08/15 16:30:19;;;;;;;4.50;2.47;;;26.20;85.20;;;;;;6255468;22;20047;-93
2022/08/15 16:33:20;;;;;;;5.03;2.55;;;26.20;85.30;;;;;;6255673;22;20330;-90
2022/08/15 16:35:52;;;;;;;3.65;2.17;;;26.10;84.90;;;;;;6308780;22;20015;-88
2022/08/15 16:38:20;;;;;;;4.45;2.65;;;26.10;85.10;;;;;;6257064;22;20019;-89
2022/08/15 16:40:52;;;;;;;4.95;2.83;;;26.00;85.40;;;;;;6283919;22;20020;-89
2022/08/15 16:43:27;;;;;;;3.90;2.45;;;26.00;85.70;;;;;;6258798;22;20015;-95
2022/08/15 16:46:45;;;;;;;6.47;3.25;;;25.90;85.90;;;;;;6287500;22;20039;-91
2022/08/15 16:49:14;;;;;;;4.38;2.60;;;25.80;86.70;;;;;;6213279;22;20026;-91
2022/08/15 16:52:17;;;;;;;4.60;1.77;;;25.60;87.00;;;;;;6267622;22;20084;-94
2022/08/15 16:57:27;;;;;;;4.07;2.08;;;25.10;87.90;;;;;;6323995;22;20037;-96
2022/08/15 17:00:15;;;;;;;4.97;1.98;;;24.90;88.50;;;;;;6327952;22;20517;-92
2022/08/15 17:08:36;;;;;;;3.90;2.08;;;24.30;90.10;;;;;;6311820;22;20322;-90
2022/08/15 17:11:22;;;;;;;4.50;2.28;;;24.10;90.60;;;;;;6293467;22;20019;-91
2022/08/15 17:22:28;;;;;;;4.00;2.08;;;23.90;90.60;;;;;;6303223;22;20023;-88
2022/08/15 17:30:09;;;;;;;4.20;1.90;;;23.90;90.80;;;;;;6294090;22;19914;-87
2022/08/15 17:35:51;;;;;;;3.60;1.83;;;23.80;90.50;;;;;;6261148;23;20024;-86
2022/08/15 17:38:30;;;;;;;4.22;2.13;;;23.80;90.60;;;;;;6241943;23;20035;-91
2022/08/15 17:41:08;;;;;;;3.95;1.90;;;23.80;90.80;;;;;;6209526;23;20028;-86
2022/08/15 17:44:04;;;;;;;4.10;2.00;;;23.80;90.70;;;;;;6239245;22;20017;-85
2022/08/15 17:46:38;;;;;;;4.25;2.20;;;23.70;90.70;;;;;;6211565;23;20338;-86
2022/08/15 17:49:19;;;;;;;4.10;2.00;;;23.70;90.90;;;;;;6241761;22;20070;-86
2022/08/15 17:59:56;;;;;;;4.80;2.28;;;23.50;91.40;;;;;;6270248;22;20023;-93
2022/08/15 18:02:23;;;;;;;6.05;1.98;;;23.50;91.60;;;;;;6253792;22;20024;-92
2022/08/15 18:04:53;;;;;;;4.47;2.00;;;23.60;91.60;;;;;;6253723;22;20022;-96
2022/08/15 18:07:23;;;;;;;4.00;2.10;;;23.60;91.70;;;;;;6253648;22;20020;-93
2022/08/15 18:09:56;;;;;;;5.00;2.72;;;23.60;91.70;;;;;;6254116;22;20020;-93
2022/08/15 18:12:21;;;;;;;5.05;2.60;;;23.60;91.60;;;;;;6280514;22;20337;-94
2022/08/15 18:14:47;;;;;;;;;;;23.60;91.80;;;;;;6254873;22;20023;-90
2022/08/15 18:17:21;;;;;;;5.00;2.47;;;23.60;92.50;;;;;;6280323;22;19958;-94
2022/08/15 18:20:02;;;;;;;4.47;2.35;;;23.60;92.00;;;;;;6258636;22;20099;-90
2022/08/15 18:22:29;;;;;;;4.80;2.28;;;23.60;92.10;;;;;;6285871;22;20023;-95
2022/08/15 18:25:10;;;;;;;4.30;2.40;;;23.60;92.20;;;;;;6278905;22;20020;-96
2022/08/15 18:27:43;;;;;;;5.72;2.45;;;23.60;92.30;;;;;;6251393;22;20023;-92
2022/08/15 18:30:14;;;;;;;5.28;2.50;;;23.60;92.40;;;;;;6277009;22;20042;-90
2022/08/15 18:32:52;;;;;;;5.03;2.70;;;23.60;92.50;;;;;;6276913;22;20467;-94
2022/08/15 18:35:44;;;;;;;8.00;3.25;;;23.60;92.50;;;;;;6276693;22;20026;-91
2022/08/15 18:38:13;;;;;;;4.93;2.72;;;23.60;92.70;;;;;;6244555;22;20487;-92
2022/08/15 18:41:08;;;;;;;5.68;2.97;;;23.50;92.60;;;;;;6276449;22;20007;-90
2022/08/15 18:43:45;;;;;;;7.38;3.47;;;23.60;92.70;;;;;;6276508;22;20468;-89
2022/08/15 18:46:23;;;;;;;6.47;3.47;;;23.50;92.60;;;;;;6252766;22;20016;-93
2022/08/15 18:48:59;;;;;;;7.90;3.13;;;23.60;92.70;;;;;;6279720;22;20051;-96
2022/08/15 18:51:27;;;;;;;6.57;3.70;;;23.60;92.80;;;;;;6278973;22;20019;-92
2022/08/15 18:54:10;;;;;;;5.47;2.78;;;23.50;93.00;;;;;;6277062;22;20442;-92
2022/08/15 18:56:49;;;;;;;6.03;3.65;;;23.50;93.10;;;;;;6251143;22;20153;-91
2022/08/15 18:59:31;;;;;;;6.60;3.38;;;23.40;93.50;;;;;;6276365;22;20023;-90
2022/08/15 19:02:16;;;;;;;6.15;3.72;;;23.40;93.20;;;;;;6250877;22;20019;-95
2022/08/15 19:04:46;;;;;;;8.02;4.20;;;23.30;93.30;;;;;;6278701;22;20500;-88
2022/08/15 19:07:21;;;;;;;8.13;4.35;;;23.30;93.40;;;;;;6252976;22;20018;-96
2022/08/15 19:10:00;;;;;;;9.00;5.47;;;23.30;93.50;;;;;;6253126;22;20023;-94
2022/08/15 19:12:35;;;;;;;8.02;4.15;;;23.30;93.40;;;;;;6277129;22;20023;-94
2022/08/15 19:15:06;;;;;;;7.15;4.88;;;23.30;93.40;;;;;;6252220;22;20027;-95
2022/08/15 19:17:39;;;;;;;7.53;4.30;;;23.30;93.50;;;;;;6252307;22;20513;-88
2022/08/15 19:20:18;;;;;;;7.88;4.68;;;23.30;93.40;;;;;;6250584;22;20540;-95
2022/08/15 19:22:53;;;;;;;6.75;4.13;;;23.40;93.60;;;;;;6276778;22;20020;-93
2022/08/15 19:25:25;;;;;;;6.85;4.07;;;23.30;93.50;;;;;;6276212;22;20011;-89
2022/08/15 19:28:26;;;;;;;6.97;3.55;;;23.40;93.60;;;;;;6276257;22;20507;-89
2022/08/15 19:30:56;;;;;;;7.65;4.78;;;23.40;93.70;;;;;;6169044;22;20019;-91
2022/08/15 19:33:43;;;;;;;6.82;3.65;;;23.40;93.80;;;;;;6276034;22;20090;-89
2022/08/15 19:36:51;;;;;;;6.03;3.75;;;23.40;93.90;;;;;;6250608;22;20058;-91
2022/08/15 19:39:17;;;;;;;;;;;23.40;93.80;;;;;;6277260;22;20067;-89
2022/08/15 19:42:02;;;;;;;6.68;3.95;;;23.40;94.10;;;;;;6276016;22;19961;-89
2022/08/15 19:44:59;;;;;;;6.00;3.28;;;23.40;93.70;;;;;;6276708;22;20015;-87
2022/08/15 19:47:40;;;;;;;6.72;3.60;;;23.40;93.40;;;;;;6229533;22;20450;-93
2022/08/15 19:53:32;;;;;;;5.80;3.28;;;23.40;93.30;;;;;;6276054;22;20019;-94
2022/08/15 19:56:12;;;;;;;6.85;3.80;;;23.40;93.20;;;;;;6277252;22;20051;-94
2022/08/15 19:58:54;;;;;;;5.63;3.25;;;23.40;93.10;;;;;;6248996;22;20022;-88
2022/08/15 20:01:49;;;;;;;6.82;3.22;;;23.40;93.00;;;;;;6274233;22;20098;-88
2022/08/15 20:04:40;;;;;;;6.95;3.58;;;23.40;93.00;;;;;;6248443;22;20016;-92
2022/08/15 20:07:42;;;;;;;5.20;2.97;;;23.40;93.00;;;;;;6249152;22;20444;-89
2022/08/15 20:10:29;;;;;;;8.25;3.97;;;23.40;93.00;;;;;;6225852;22;20020;-92
2022/08/15 20:13:19;;;;;;;6.45;3.13;;;23.50;93.00;;;;;;6250221;22;20050;-92
2022/08/15 20:16:02;;;;;;;6.10;3.10;;;23.40;93.00;;;;;;6224766;22;20019;-89
2022/08/15 20:18:53;;;;;;;5.35;2.67;;;23.50;93.00;;;;;;6275632;22;20534;-94
2022/08/15 20:21:32;;;;;;;7.15;3.58;;;23.50;93.10;;;;;;6250261;22;20011;-92
2022/08/15 20:24:14;;;;;;;4.18;2.60;;;23.50;93.20;;;;;;6250676;22;20051;-91
2022/08/15 20:26:49;;;;;;;5.82;3.17;;;23.40;93.30;;;;;;6250479;22;20015;-93
2022/08/15 20:29:27;;;;;;;5.82;3.05;;;23.40;93.50;;;;;;6250868;22;20015;-95
2022/08/15 20:32:01;;;;;;;6.40;3.38;;;23.40;93.60;;;;;;6251983;22;20102;-94
2022/08/15 20:34:33;;;;;;;5.72;3.28;;;23.40;93.70;;;;;;6276039;22;20137;-94
2022/08/15 20:37:07;;;;;;;5.05;2.80;;;23.30;93.90;;;;;;6250077;22;20346;-90
2022/08/15 20:39:35;;;;;;;6.55;3.28;;;23.30;94.10;;;;;;6250070;22;20390;-95
2022/08/15 20:42:24;;;;;;;4.97;3.08;;;23.20;94.20;;;;;;6250184;22;20059;-95
2022/08/15 20:45:11;;;;;;;6.80;3.42;;;23.20;94.60;;;;;;6249889;22;20026;-86
2022/08/15 20:47:52;;;;;;;6.72;3.33;;;23.10;94.50;;;;;;6249996;22;20377;-95
2022/08/15 20:50:24;;;;;;;5.93;3.22;;;23.00;94.50;;;;;;6250194;22;20019;-90
2022/08/15 20:52:51;;;;;;;5.10;2.88;;;23.00;94.90;;;;;;6250489;22;20095;-92
2022/08/15 20:55:25;;;;;;;6.05;3.75;;;22.90;94.90;;;;;;6276004;22;20016;-93
2022/08/15 20:57:51;;;;;;;6.55;3.92;;;22.80;95.00;;;;;;6250734;22;20098;-93
2022/08/15 21:00:18;;;;;;;;;;;22.70;95.20;;;;;;6277957;22;20074;-89
2022/08/15 21:02:48;;;;;;;6.97;3.90;;;22.60;96.30;;;;;;6251880;22;19977;-91
2022/08/15 21:05:14;;;;;;;7.15;4.03;;;22.50;95.80;;;;;;6277595;22;20084;-90
2022/08/15 21:07:49;;;;;;;;;;;22.50;96.10;;;;;;6252240;22;20457;-92
2022/08/15 21:10:27;;;;;;;6.40;3.92;;;22.40;96.90;;;;;;6277581;22;19990;-92
2022/08/15 21:13:47;;;;;;;5.20;3.42;;;22.40;96.60;;;;;;6252287;22;20011;-92
2022/08/15 21:16:36;;;;;;;6.28;3.28;;;22.40;96.70;;;;;;6251435;22;20016;-90
2022/08/15 21:19:56;;;;;;;5.95;3.53;;;22.30;96.90;;;;;;6251763;22;20051;-89
2022/08/15 21:23:12;;;;;;;6.40;4.03;;;22.30;96.90;;;;;;6106636;23;20029;-93
2022/08/15 21:25:43;;;;;;;7.07;4.20;;;22.30;97.50;;;;;;6213040;22;20016;-89
2022/08/15 21:28:23;;;;;;;7.65;4.10;;;22.20;97.40;;;;;;6251323;22;20020;-90
2022/08/15 21:31:27;;;;;;;6.38;4.00;;;22.20;97.40;;;;;;6251215;22;20011;-89
2022/08/15 21:33:55;;;;;;;6.90;4.13;;;22.20;97.70;;;;;;6251222;22;20019;-90
2022/08/15 21:36:21;;;;;;;8.02;4.10;;;22.20;97.70;;;;;;6249997;22;20465;-91
2022/08/15 21:39:06;;;;;;;7.30;4.60;;;22.20;97.70;;;;;;6251677;22;20051;-92
2022/08/15 21:41:45;;;;;;;7.78;4.50;;;22.20;97.80;;;;;;6251630;22;20015;-90
2022/08/15 21:44:11;;;;;;;7.00;3.92;;;22.20;97.80;;;;;;6278718;22;20019;-91
2022/08/15 21:46:52;;;;;;;9.20;4.32;;;22.20;98.00;;;;;;6251562;22;20434;-90
2022/08/15 21:49:50;;;;;;;5.90;3.90;;;22.20;98.30;;;;;;6251639;22;20023;-90
2022/08/15 21:52:15;;;;;;;6.93;3.92;;;22.20;98.50;;;;;;6276746;22;20015;-89
2022/08/15 21:54:50;;;;;;;7.95;4.20;;;22.20;98.50;;;;;;6251951;22;20015;-89
2022/08/15 21:57:27;;;;;;;6.38;3.83;;;22.10;98.50;;;;;;6251323;22;20016;-92
2022/08/15 21:59:55;;;;;;;8.60;4.30;;;22.10;98.30;;;;;;6274168;22;20047;-92
2022/08/15 22:02:55;;;;;;;6.95;4.28;;;22.10;98.20;;;;;;6249189;22;20024;-92
2022/08/15 22:05:35;;;;;;;6.72;3.67;;;22.20;98.00;;;;;;6249642;22;20015;-91
2022/08/15 22:08:04;;;;;;;8.25;3.90;;;22.20;98.10;;;;;;6248956;22;20020;-89
2022/08/15 22:10:32;;;;;;;7.25;3.88;;;22.20;98.00;;;;;;6248093;22;20024;-89
2022/08/15 22:13:00;;;;;;;6.68;4.10;;;22.20;98.10;;;;;;6249140;22;21558;-89
2022/08/15 22:15:28;;;;;;;6.18;3.65;;;22.20;98.20;;;;;;6250889;22;20030;-89
2022/08/15 22:17:55;;;;;;;7.82;5.07;;;22.20;98.30;;;;;;6251165;22;20020;-89
2022/08/15 22:20:22;;;;;;;6.72;3.78;;;22.20;98.40;;;;;;6250735;22;20016;-91
2022/08/15 22:22:52;;;;;;;6.65;4.22;;;22.20;98.40;;;;;;6250335;22;20016;-92
2022/08/15 22:30:32;;;;;;;8.65;4.97;;;22.00;98.10;;;;;;6243358;22;20031;-96
2022/08/15 22:33:04;;;;;;;7.47;4.93;;;21.90;98.20;;;;;;6246432;23;20453;-93
2022/08/15 22:35:30;;;;;;;7.95;4.60;;;21.80;98.30;;;;;;6220928;23;20078;-89
2022/08/15 22:37:56;;;;;;;;;;;21.80;98.50;;;;;;6221447;23;20353;-93
2022/08/15 22:40:23;;;;;;;9.48;5.30;;;21.70;99.20;;;;;;6220784;23;20037;-95
2022/08/15 23:11:50;;;;;;;8.98;5.93;;;21.40;99.90;;;;;;6281753;22;20046;-94
2022/08/15 23:14:27;;;;;;;9.50;6.40;;;21.40;99.90;;;;;;6249796;22;20463;-96
2022/08/15 23:17:23;;;;;;;11.23;6.75;;;21.40;99.90;;;;;;6251425;22;20046;-94
2022/08/15 23:30:47;;;;;;;9.20;5.72;;;21.30;99.90;;;;;;6242916;22;20024;-90
2022/08/15 23:33:13;;;;;;;10.18;6.57;;;21.30;99.90;;;;;;6103837;23;20147;-92
2022/08/15 23:35:39;;;;;;;10.07;7.35;;;21.40;99.90;;;;;;6105360;23;20049;-91
2022/08/15 23:38:10;;;;;;;10.15;6.85;;;21.40;99.90;;;;;;6102647;23;20377;-91
2022/08/15 23:44:53;;;;;;;10.68;6.85;;;21.40;99.90;;;;;;6064048;23;20516;-90
2022/08/15 23:47:19;;;;;;;11.88;7.28;;;21.40;99.90;;;;;;6016069;23;20023;-91
2022/08/15 23:50:04;;;;;;;10.82;7.82;;;21.40;99.90;;;;;;6015913;23;20348;-91